sensor_id;sensor_type;location;lat;lon;timestamp;pressure;altitude;pressure_sealevel;temperature;humidity
24996;BME280;13016;52.162;21.034;2023-12-04T00:05:56;100757.98;;;4.44;55.93
24996;BME280;13016;52.162;21.034;2023-12-04T00:11:56;100761.31;;;4.45;56.38
24996;BME280;13016;52.162;21.034;2023-12-04T00:17:57;100762.27;;;4.53;56.29
24996;BME280;13016;52.162;21.034;2023-12-04T00:23:57;100766.03;;;4.56;56.25
24996;BME280;13016;52.162;21.034;2023-12-04T00:29:57;100771.54;;;4.59;56.17
24996;BME280;13016;52.162;21.034;2023-12-04T00:35:57;100773.20;;;4.56;56.50
24996;BME280;13016;52.162;21.034;2023-12-04T00:41:58;100780.75;;;4.66;56.53
24996;BME280;13016;52.162;21.034;2023-12-04T00:47:58;100783.67;;;4.74;56.37
24996;BME280;13016;52.162;21.034;2023-12-04T00:53:58;100788.75;;;4.79;56.56
24996;BME280;13016;52.162;21.034;2023-12-04T00:59:58;100792.86;;;4.82;56.44
24996;BME280;13016;52.162;21.034;2023-12-04T01:05:59;100793.35;;;4.77;56.40
24996;BME280;13016;52.162;21.034;2023-12-04T01:11:59;100795.42;;;4.78;56.43
24996;BME280;13016;52.162;21.034;2023-12-04T01:17:59;100799.48;;;4.71;56.49
24996;BME280;13016;52.162;21.034;2023-12-04T01:24:00;100803.61;;;4.73;56.71
24996;BME280;13016;52.162;21.034;2023-12-04T01:30:01;100805.05;;;4.89;56.49
24996;BME280;13016;52.162;21.034;2023-12-04T01:36:01;100804.45;;;4.80;56.60
24996;BME280;13016;52.162;21.034;2023-12-04T01:42:02;100804.08;;;4.75;56.43
24996;BME280;13016;52.162;21.034;2023-12-04T01:48:03;100813.14;;;4.70;56.48
24996;BME280;13016;52.162;21.034;2023-12-04T01:54:04;100821.37;;;4.70;56.42
24996;BME280;13016;52.162;21.034;2023-12-04T02:00:06;100824.20;;;4.68;56.32
24996;BME280;13016;52.162;21.034;2023-12-04T02:06:07;100824.08;;;4.72;56.10
24996;BME280;13016;52.162;21.034;2023-12-04T02:12:07;100836.66;;;4.66;55.70
24996;BME280;13016;52.162;21.034;2023-12-04T02:18:08;100846.53;;;4.64;55.19
24996;BME280;13016;52.162;21.034;2023-12-04T02:24:08;100853.69;;;4.51;54.91
24996;BME280;13016;52.162;21.034;2023-12-04T02:30:12;100861.19;;;4.40;54.65
24996;BME280;13016;52.162;21.034;2023-12-04T02:36:13;100860.34;;;4.20;54.45
24996;BME280;13016;52.162;21.034;2023-12-04T02:42:14;100859.42;;;4.09;54.42
24996;BME280;13016;52.162;21.034;2023-12-04T02:48:14;100860.98;;;4.03;54.14
24996;BME280;13016;52.162;21.034;2023-12-04T02:54:14;100864.86;;;3.95;54.02
24996;BME280;13016;52.162;21.034;2023-12-04T03:00:17;100865.95;;;4.14;54.08
24996;BME280;13016;52.162;21.034;2023-12-04T03:06:17;100873.71;;;4.17;54.13
24996;BME280;13016;52.162;21.034;2023-12-04T03:12:18;100877.52;;;4.17;54.14
24996;BME280;13016;52.162;21.034;2023-12-04T03:18:18;100879.56;;;4.20;54.36
24996;BME280;13016;52.162;21.034;2023-12-04T03:24:18;100880.62;;;4.26;54.19
24996;BME280;13016;52.162;21.034;2023-12-04T03:30:18;100886.21;;;4.26;54.04
24996;BME280;13016;52.162;21.034;2023-12-04T03:36:19;100891.62;;;4.20;54.31
24996;BME280;13016;52.162;21.034;2023-12-04T03:42:19;100895.67;;;4.11;54.37
24996;BME280;13016;52.162;21.034;2023-12-04T03:48:19;100896.56;;;4.04;54.46
24996;BME280;13016;52.162;21.034;2023-12-04T03:54:20;100901.31;;;4.03;54.49
24996;BME280;13016;52.162;21.034;2023-12-04T04:00:20;100905.87;;;4.09;54.53
24996;BME280;13016;52.162;21.034;2023-12-04T04:06:20;100906.16;;;4.04;54.35
24996;BME280;13016;52.162;21.034;2023-12-04T04:12:21;100912.58;;;3.99;54.44
24996;BME280;13016;52.162;21.034;2023-12-04T04:18:21;100919.86;;;4.08;54.22
24996;BME280;13016;52.162;21.034;2023-12-04T04:24:21;100918.45;;;4.02;54.07
24996;BME280;13016;52.162;21.034;2023-12-04T04:30:21;100917.95;;;3.94;54.13
24996;BME280;13016;52.162;21.034;2023-12-04T04:36:22;100915.71;;;4.00;54.02
24996;BME280;13016;52.162;21.034;2023-12-04T04:42:22;100914.70;;;3.98;53.82
24996;BME280;13016;52.162;21.034;2023-12-04T04:48:22;100923.66;;;4.03;53.88
24996;BME280;13016;52.162;21.034;2023-12-04T04:54:23;100927.45;;;3.98;53.84
24996;BME280;13016;52.162;21.034;2023-12-04T05:00:23;100925.58;;;3.96;53.88
24996;BME280;13016;52.162;21.034;2023-12-04T05:06:23;100925.24;;;3.95;54.00
24996;BME280;13016;52.162;21.034;2023-12-04T05:12:24;100923.34;;;4.01;53.92
24996;BME280;13016;52.162;21.034;2023-12-04T05:18:25;100930.00;;;4.00;54.04
24996;BME280;13016;52.162;21.034;2023-12-04T05:24:25;100936.85;;;3.99;53.84
24996;BME280;13016;52.162;21.034;2023-12-04T05:30:26;100936.64;;;3.86;54.08
24996;BME280;13016;52.162;21.034;2023-12-04T05:36:27;100939.84;;;3.84;54.02
24996;BME280;13016;52.162;21.034;2023-12-04T05:42:27;100941.45;;;3.90;54.26
24996;BME280;13016;52.162;21.034;2023-12-04T05:48:27;100942.33;;;3.82;54.01
24996;BME280;13016;52.162;21.034;2023-12-04T05:54:28;100942.66;;;3.90;53.80
24996;BME280;13016;52.162;21.034;2023-12-04T06:00:28;100944.20;;;3.78;53.84
24996;BME280;13016;52.162;21.034;2023-12-04T06:06:28;100951.60;;;3.81;54.08
24996;BME280;13016;52.162;21.034;2023-12-04T06:12:28;100956.60;;;3.91;53.76
24996;BME280;13016;52.162;21.034;2023-12-04T06:18:34;100965.64;;;4.00;53.82
24996;BME280;13016;52.162;21.034;2023-12-04T06:24:35;100966.06;;;3.97;53.63
24996;BME280;13016;52.162;21.034;2023-12-04T06:30:36;100964.96;;;3.91;53.51
24996;BME280;13016;52.162;21.034;2023-12-04T06:36:38;100967.29;;;3.89;53.75
24996;BME280;13016;52.162;21.034;2023-12-04T06:42:38;100972.91;;;3.95;53.91
24996;BME280;13016;52.162;21.034;2023-12-04T06:48:39;100970.92;;;3.90;53.78
24996;BME280;13016;52.162;21.034;2023-12-04T06:54:40;100969.21;;;4.03;54.04
24996;BME280;13016;52.162;21.034;2023-12-04T07:00:41;100967.44;;;3.97;54.02
24996;BME280;13016;52.162;21.034;2023-12-04T07:06:41;100973.15;;;3.99;54.07
24996;BME280;13016;52.162;21.034;2023-12-04T07:12:42;100974.27;;;4.03;53.71
24996;BME280;13016;52.162;21.034;2023-12-04T07:18:42;100977.90;;;4.05;53.78
24996;BME280;13016;52.162;21.034;2023-12-04T07:24:42;100984.16;;;4.12;53.60
24996;BME280;13016;52.162;21.034;2023-12-04T07:30:42;100980.97;;;4.14;53.56
24996;BME280;13016;52.162;21.034;2023-12-04T07:36:43;100984.70;;;4.12;53.41
24996;BME280;13016;52.162;21.034;2023-12-04T07:42:43;100996.30;;;4.16;53.60
24996;BME280;13016;52.162;21.034;2023-12-04T07:48:43;100996.83;;;4.29;53.47
24996;BME280;13016;52.162;21.034;2023-12-04T07:54:43;100994.04;;;4.29;53.52
24996;BME280;13016;52.162;21.034;2023-12-04T08:00:44;100992.45;;;4.16;53.49
24996;BME280;13016;52.162;21.034;2023-12-04T08:06:44;101002.59;;;4.22;53.73
24996;BME280;13016;52.162;21.034;2023-12-04T08:12:45;101008.27;;;4.40;53.33
24996;BME280;13016;52.162;21.034;2023-12-04T08:18:45;101013.34;;;4.46;53.01
24996;BME280;13016;52.162;21.034;2023-12-04T08:24:46;101018.65;;;4.50;52.98
24996;BME280;13016;52.162;21.034;2023-12-04T08:30:46;101019.21;;;4.48;52.69
24996;BME280;13016;52.162;21.034;2023-12-04T08:36:46;101020.53;;;4.58;52.49
24996;BME280;13016;52.162;21.034;2023-12-04T08:42:46;101020.90;;;4.51;52.34
24996;BME280;13016;52.162;21.034;2023-12-04T08:48:47;101030.38;;;4.56;52.42
24996;BME280;13016;52.162;21.034;2023-12-04T08:54:50;101037.20;;;4.48;52.36
24996;BME280;13016;52.162;21.034;2023-12-04T09:00:50;101039.63;;;4.50;52.30
24996;BME280;13016;52.162;21.034;2023-12-04T09:06:50;101036.15;;;4.62;52.31
24996;BME280;13016;52.162;21.034;2023-12-04T09:12:51;101041.06;;;4.68;51.78
24996;BME280;13016;52.162;21.034;2023-12-04T09:18:51;101039.34;;;4.61;52.00
24996;BME280;13016;52.162;21.034;2023-12-04T09:24:51;101037.59;;;4.67;51.98
24996;BME280;13016;52.162;21.034;2023-12-04T09:30:51;101041.73;;;4.83;51.89
24996;BME280;13016;52.162;21.034;2023-12-04T09:36:52;101031.45;;;4.88;51.59
24996;BME280;13016;52.162;21.034;2023-12-04T09:42:52;101030.02;;;4.82;51.39
24996;BME280;13016;52.162;21.034;2023-12-04T09:48:54;101030.92;;;4.88;51.54
24996;BME280;13016;52.162;21.034;2023-12-04T09:54:55;101029.03;;;4.93;51.35
24996;BME280;13016;52.162;21.034;2023-12-04T10:00:56;101030.61;;;5.06;51.18
24996;BME280;13016;52.162;21.034;2023-12-04T10:06:57;101025.88;;;5.18;50.98
24996;BME280;13016;52.162;21.034;2023-12-04T10:12:57;101023.68;;;5.22;50.58
24996;BME280;13016;52.162;21.034;2023-12-04T10:18:57;101019.54;;;5.14;50.62
24996;BME280;13016;52.162;21.034;2023-12-04T10:24:57;101014.91;;;5.29;50.76
24996;BME280;13016;52.162;21.034;2023-12-04T10:30:58;101016.84;;;5.52;50.51
24996;BME280;13016;52.162;21.034;2023-12-04T10:36:59;101013.27;;;5.60;50.58
24996;BME280;13016;52.162;21.034;2023-12-04T10:49:11;101003.37;;;5.74;50.24
24996;BME280;13016;52.162;21.034;2023-12-04T10:55:12;101003.81;;;5.76;49.99
24996;BME280;13016;52.162;21.034;2023-12-04T11:01:13;101010.63;;;5.77;50.04
24996;BME280;13016;52.162;21.034;2023-12-04T11:07:14;101016.46;;;5.88;49.88
24996;BME280;13016;52.162;21.034;2023-12-04T11:13:22;101006.61;;;5.77;49.39
24996;BME280;13016;52.162;21.034;2023-12-04T11:19:29;101009.41;;;5.83;49.28
24996;BME280;13016;52.162;21.034;2023-12-04T11:25:32;101012.72;;;5.90;49.11
24996;BME280;13016;52.162;21.034;2023-12-04T11:31:38;101015.77;;;5.98;49.23
24996;BME280;13016;52.162;21.034;2023-12-04T11:37:39;101014.77;;;6.02;48.90
24996;BME280;13016;52.162;21.034;2023-12-04T11:43:42;101008.12;;;6.08;49.26
24996;BME280;13016;52.162;21.034;2023-12-04T11:49:57;101000.40;;;6.13;49.15
24996;BME280;13016;52.162;21.034;2023-12-04T11:55:57;100999.04;;;6.18;48.91
24996;BME280;13016;52.162;21.034;2023-12-04T12:01:58;100995.08;;;6.20;48.86
24996;BME280;13016;52.162;21.034;2023-12-04T12:14:26;100990.42;;;6.08;48.11
24996;BME280;13016;52.162;21.034;2023-12-04T12:20:26;100990.61;;;6.18;48.58
24996;BME280;13016;52.162;21.034;2023-12-04T12:26:46;100980.46;;;6.12;48.27
24996;BME280;13016;52.162;21.034;2023-12-04T12:32:47;100975.61;;;6.16;48.36
24996;BME280;13016;52.162;21.034;2023-12-04T12:38:47;100969.96;;;6.28;48.18
24996;BME280;13016;52.162;21.034;2023-12-04T12:44:47;100966.55;;;6.04;48.27
24996;BME280;13016;52.162;21.034;2023-12-04T12:50:47;100969.19;;;6.04;48.72
24996;BME280;13016;52.162;21.034;2023-12-04T12:56:48;100966.35;;;6.10;48.32
24996;BME280;13016;52.162;21.034;2023-12-04T13:02:48;100958.14;;;6.14;48.68
24996;BME280;13016;52.162;21.034;2023-12-04T13:08:54;100954.72;;;6.12;48.92
24996;BME280;13016;52.162;21.034;2023-12-04T13:14:55;100954.19;;;6.02;48.42
24996;BME280;13016;52.162;21.034;2023-12-04T13:20:55;100955.08;;;5.96;48.81
24996;BME280;13016;52.162;21.034;2023-12-04T13:34:07;100942.69;;;5.90;48.37
24996;BME280;13016;52.162;21.034;2023-12-04T13:40:08;100939.98;;;6.03;48.50
24996;BME280;13016;52.162;21.034;2023-12-04T13:46:11;100938.72;;;6.14;48.65
24996;BME280;13016;52.162;21.034;2023-12-04T13:52:12;100943.33;;;6.12;48.44
24996;BME280;13016;52.162;21.034;2023-12-04T13:58:12;100936.45;;;6.49;47.37
24996;BME280;13016;52.162;21.034;2023-12-04T14:04:13;100940.91;;;6.46;47.03
24996;BME280;13016;52.162;21.034;2023-12-04T14:10:13;100948.17;;;6.49;46.70
24996;BME280;13016;52.162;21.034;2023-12-04T14:16:14;100944.55;;;6.43;46.30
24996;BME280;13016;52.162;21.034;2023-12-04T14:22:15;100948.38;;;6.43;46.33
24996;BME280;13016;52.162;21.034;2023-12-04T14:28:22;100948.59;;;6.38;46.04
24996;BME280;13016;52.162;21.034;2023-12-04T14:34:23;100949.23;;;6.30;46.56
24996;BME280;13016;52.162;21.034;2023-12-04T14:40:23;100941.27;;;6.06;46.44
24996;BME280;13016;52.162;21.034;2023-12-04T14:46:23;100941.12;;;6.10;46.84
24996;BME280;13016;52.162;21.034;2023-12-04T14:52:24;100943.55;;;6.11;47.01
24996;BME280;13016;52.162;21.034;2023-12-04T14:58:24;100940.80;;;6.10;46.85
24996;BME280;13016;52.162;21.034;2023-12-04T15:04:24;100937.89;;;6.12;46.80
24996;BME280;13016;52.162;21.034;2023-12-04T15:10:25;100937.54;;;6.13;47.04
24996;BME280;13016;52.162;21.034;2023-12-04T15:16:25;100941.92;;;5.30;48.22
24996;BME280;13016;52.162;21.034;2023-12-04T15:22:25;100951.04;;;4.88;49.51
24996;BME280;13016;52.162;21.034;2023-12-04T15:28:26;100952.75;;;4.95;49.64
24996;BME280;13016;52.162;21.034;2023-12-04T15:34:26;100954.56;;;5.05;49.71
24996;BME280;13016;52.162;21.034;2023-12-04T15:40:26;100951.05;;;4.94;49.55
24996;BME280;13016;52.162;21.034;2023-12-04T15:46:26;100954.48;;;4.90;49.96
24996;BME280;13016;52.162;21.034;2023-12-04T15:52:27;100953.05;;;4.97;49.82
24996;BME280;13016;52.162;21.034;2023-12-04T15:58:27;100948.42;;;4.88;50.12
24996;BME280;13016;52.162;21.034;2023-12-04T16:04:27;100948.42;;;4.76;49.96
24996;BME280;13016;52.162;21.034;2023-12-04T16:10:28;100951.30;;;4.85;50.15
24996;BME280;13016;52.162;21.034;2023-12-04T16:16:28;100954.08;;;4.79;50.12
24996;BME280;13016;52.162;21.034;2023-12-04T16:22:28;100947.77;;;4.67;50.17
24996;BME280;13016;52.162;21.034;2023-12-04T16:28:29;100942.98;;;4.57;50.11
24996;BME280;13016;52.162;21.034;2023-12-04T16:34:46;100940.54;;;4.31;50.04
24996;BME280;13016;52.162;21.034;2023-12-04T16:40:56;100940.42;;;4.42;50.32
24996;BME280;13016;52.162;21.034;2023-12-04T16:46:56;100939.75;;;4.21;50.26
24996;BME280;13016;52.162;21.034;2023-12-04T16:52:56;100939.92;;;4.15;50.54
24996;BME280;13016;52.162;21.034;2023-12-04T16:58:57;100936.02;;;4.11;50.56
24996;BME280;13016;52.162;21.034;2023-12-04T17:04:57;100932.23;;;3.81;50.68
24996;BME280;13016;52.162;21.034;2023-12-04T17:10:57;100932.25;;;3.44;51.61
24996;BME280;13016;52.162;21.034;2023-12-04T17:16:58;100930.23;;;3.25;52.20
24996;BME280;13016;52.162;21.034;2023-12-04T17:22:58;100934.98;;;3.39;52.32
24996;BME280;13016;52.162;21.034;2023-12-04T17:28:58;100933.34;;;3.18;52.50
24996;BME280;13016;52.162;21.034;2023-12-04T17:34:59;100929.61;;;2.97;52.65
24996;BME280;13016;52.162;21.034;2023-12-04T17:40:59;100926.42;;;2.92;53.00
24996;BME280;13016;52.162;21.034;2023-12-04T17:46:59;100928.70;;;2.83;53.05
24996;BME280;13016;52.162;21.034;2023-12-04T17:53:00;100926.41;;;2.76;53.15
24996;BME280;13016;52.162;21.034;2023-12-04T17:59:00;100926.71;;;2.70;53.28
24996;BME280;13016;52.162;21.034;2023-12-04T18:05:01;100927.57;;;2.62;53.33
24996;BME280;13016;52.162;21.034;2023-12-04T18:11:01;100931.11;;;2.68;53.62
24996;BME280;13016;52.162;21.034;2023-12-04T18:17:01;100937.73;;;2.67;53.29
24996;BME280;13016;52.162;21.034;2023-12-04T18:23:01;100934.91;;;2.60;53.33
24996;BME280;13016;52.162;21.034;2023-12-04T18:29:02;100927.04;;;2.54;53.48
24996;BME280;13016;52.162;21.034;2023-12-04T18:35:02;100923.43;;;2.50;53.43
24996;BME280;13016;52.162;21.034;2023-12-04T18:41:03;100925.30;;;2.34;53.71
24996;BME280;13016;52.162;21.034;2023-12-04T18:47:07;100929.44;;;2.37;53.61
24996;BME280;13016;52.162;21.034;2023-12-04T18:53:08;100932.20;;;2.29;53.60
24996;BME280;13016;52.162;21.034;2023-12-04T18:59:08;100934.80;;;2.00;54.03
24996;BME280;13016;52.162;21.034;2023-12-04T19:05:09;100932.09;;;2.06;54.05
24996;BME280;13016;52.162;21.034;2023-12-04T19:11:09;100924.63;;;2.05;54.01
24996;BME280;13016;52.162;21.034;2023-12-04T19:17:09;100917.84;;;1.95;54.08
24996;BME280;13016;52.162;21.034;2023-12-04T19:23:10;100914.13;;;1.78;54.20
24996;BME280;13016;52.162;21.034;2023-12-04T19:29:10;100910.73;;;1.63;54.71
24996;BME280;13016;52.162;21.034;2023-12-04T19:35:10;100907.42;;;1.52;54.60
24996;BME280;13016;52.162;21.034;2023-12-04T19:41:11;100899.92;;;1.42;55.01
24996;BME280;13016;52.162;21.034;2023-12-04T19:47:12;100900.42;;;1.43;55.04
24996;BME280;13016;52.162;21.034;2023-12-04T19:53:12;100899.23;;;1.43;54.74
24996;BME280;13016;52.162;21.034;2023-12-04T19:59:13;100893.01;;;1.40;54.72
24996;BME280;13016;52.162;21.034;2023-12-04T20:05:13;100893.41;;;1.25;54.82
24996;BME280;13016;52.162;21.034;2023-12-04T20:11:13;100894.08;;;1.14;55.12
24996;BME280;13016;52.162;21.034;2023-12-04T20:17:13;100890.48;;;1.35;54.94
24996;BME280;13016;52.162;21.034;2023-12-04T20:23:14;100896.83;;;1.29;54.72
24996;BME280;13016;52.162;21.034;2023-12-04T20:29:14;100890.54;;;1.19;54.79
24996;BME280;13016;52.162;21.034;2023-12-04T20:35:14;100892.36;;;1.13;54.65
24996;BME280;13016;52.162;21.034;2023-12-04T20:41:15;100896.02;;;1.12;54.54
24996;BME280;13016;52.162;21.034;2023-12-04T20:47:15;100895.41;;;1.07;54.58
24996;BME280;13016;52.162;21.034;2023-12-04T20:53:15;100886.55;;;1.06;54.51
24996;BME280;13016;52.162;21.034;2023-12-04T20:59:16;100888.62;;;1.08;54.31
24996;BME280;13016;52.162;21.034;2023-12-04T21:05:16;100892.86;;;0.90;54.44
24996;BME280;13016;52.162;21.034;2023-12-04T21:11:16;100884.30;;;0.80;54.68
24996;BME280;13016;52.162;21.034;2023-12-04T21:17:16;100885.52;;;0.93;54.69
24996;BME280;13016;52.162;21.034;2023-12-04T21:23:17;100882.09;;;0.89;54.37
24996;BME280;13016;52.162;21.034;2023-12-04T21:29:17;100881.18;;;0.80;54.20
24996;BME280;13016;52.162;21.034;2023-12-04T21:35:17;100872.92;;;0.74;54.02
24996;BME280;13016;52.162;21.034;2023-12-04T21:41:17;100861.17;;;0.57;53.74
24996;BME280;13016;52.162;21.034;2023-12-04T21:47:18;100854.36;;;0.45;53.69
24996;BME280;13016;52.162;21.034;2023-12-04T21:53:18;100849.91;;;0.27;53.44
24996;BME280;13016;52.162;21.034;2023-12-04T21:59:18;100852.70;;;0.10;53.34
24996;BME280;13016;52.162;21.034;2023-12-04T22:05:18;100849.67;;;0.01;53.37
24996;BME280;13016;52.162;21.034;2023-12-04T22:11:19;100843.91;;;-0.12;53.50
24996;BME280;13016;52.162;21.034;2023-12-04T22:17:20;100839.56;;;-0.13;53.63
24996;BME280;13016;52.162;21.034;2023-12-04T22:23:20;100838.31;;;-0.24;53.68
24996;BME280;13016;52.162;21.034;2023-12-04T22:29:20;100837.88;;;-0.34;53.82
24996;BME280;13016;52.162;21.034;2023-12-04T22:35:20;100842.78;;;-0.39;53.85
24996;BME280;13016;52.162;21.034;2023-12-04T22:41:21;100845.58;;;-0.41;53.66
24996;BME280;13016;52.162;21.034;2023-12-04T22:47:21;100843.29;;;-0.37;53.76
24996;BME280;13016;52.162;21.034;2023-12-04T22:53:21;100842.13;;;-0.44;53.80
24996;BME280;13016;52.162;21.034;2023-12-04T22:59:22;100842.95;;;-0.39;53.81
24996;BME280;13016;52.162;21.034;2023-12-04T23:05:22;100841.85;;;-0.50;53.67
24996;BME280;13016;52.162;21.034;2023-12-04T23:11:22;100837.14;;;-0.48;53.82
24996;BME280;13016;52.162;21.034;2023-12-04T23:17:22;100828.11;;;-0.48;53.88
24996;BME280;13016;52.162;21.034;2023-12-04T23:23:22;100818.39;;;-0.43;53.86
24996;BME280;13016;52.162;21.034;2023-12-04T23:29:23;100816.00;;;-0.48;53.69
24996;BME280;13016;52.162;21.034;2023-12-04T23:35:23;100812.36;;;-0.48;53.64
24996;BME280;13016;52.162;21.034;2023-12-04T23:41:23;100810.17;;;-0.55;53.71
24996;BME280;13016;52.162;21.034;2023-12-04T23:47:23;100809.30;;;-0.55;53.95
24996;BME280;13016;52.162;21.034;2023-12-04T23:53:24;100805.96;;;-0.50;53.92
24996;BME280;13016;52.162;21.034;2023-12-04T23:59:24;100798.32;;;-0.47;53.78
